Scholes International At Galveston Airport
KGLS : now visible

Airfield :











YOU CAN JOIN US ON...

 
LOGIN :

Register | Disclaimer

   EN    FR    IT 

 









Legend :    VFR   Marginal VFR   IFR   Intensive IFR   Very Intensive IFR
Visi :
Ceiling :
>= 8 km
>= 3000ft
5 to 8 km
1000 to 3000 ft
1500m to 5 km
500 to 1000 ft
800 to 1500m
200 to 500 ft
< 800m
< 200 ft
Symbols :   Thunderstorms  Fog  Heavy snow  Heavy precipitations  Wind > 20 kt






- Airport Elevation : 6 ft
- IATA code : GLS


KGLS - Scholes International At Galveston

CURRENT METAR :
  • 181652Z 08017G24KT 10SM FEW027 SCT032 31/25 A2983 RMK AO2 PK WND 11027/1621 SLP102 T03110250

EXPIRED METARs :
  • 181606Z 10013G23KT 10SM SCT025 BKN037 31/26 A2984 RMK AO2 T03110256
  • 181559Z 10015G23KT 10SM SCT024 BKN029 BKN037 31/26 A2984 RMK AO2 T03110256
  • 181552Z 07015G24KT 10SM SCT024 SCT029 BKN037 30/25 A2983 RMK AO2 SLP101 T03000250
  • 181452Z AUTO 08014G25KT 10SM SCT021 SCT028 31/26 A2984 RMK AO2 PK WND 07026/1408 SLP103 T03110261 51012
  • 181352Z AUTO 08014G22KT 10SM FEW021 FEW031 30/26 A2982 RMK AO2 PK WND 08026/1332 SLP099 T03000256
  • 181252Z AUTO 09015G22KT 10SM FEW023 29/24 A2982 RMK AO2 SLP097 T02890244

TAF KGLS
Valid from the 18 at 18:00 until the 19 at 18:00 UTC


181730Z 1818/1918 10013G23KT P6SM VCSH SCT025 BKN035
FM190000 08022G30KT 6SM -SHRA BR OVC023
FM190500 08025G35KT 4SM SHRA BR VCTS SCT009 OVC016CB
FM191500 08025G37KT 5SM SHRA BR VCTS OVC009CB
KZHU FIR / North America



MET'MAP, your aeronautical weather chart ! - Copyright ORBIFLY December 2007 - Disclaimer

ORBIFLY MET'MAP TEAM :

Programming & Development : Alexandra Zaïnal
Original concept : Baudouin d'Aumeries
Technical & hardware support : Manuel Goepfert
Assistance : Marc-Olivier Méhu




SOURCES & CREDITS :

   NOAA       Earth
Advisory